createdAt,value
2023-04-08T00:01:47.457Z,7.28
2023-04-08T00:04:16.935Z,7.25
2023-04-08T00:06:46.018Z,7.28
2023-04-08T00:09:15.430Z,7.28
2023-04-08T00:11:44.463Z,7.27
2023-04-08T00:14:15.279Z,7.06
2023-04-08T00:16:44.383Z,7.19
2023-04-08T00:19:13.699Z,7.25
2023-04-08T00:21:42.791Z,7.27
2023-04-08T00:24:12.098Z,7.26
2023-04-08T00:26:41.638Z,7.28
2023-04-08T00:29:10.974Z,7.30
2023-04-08T00:31:41.634Z,7.28
2023-04-08T00:34:11.663Z,7.25
2023-04-08T00:36:40.759Z,7.25
2023-04-08T00:39:10.069Z,7.25
2023-04-08T00:41:39.220Z,7.24
2023-04-08T00:44:08.689Z,7.24
2023-04-08T00:46:40.803Z,7.17
2023-04-08T00:49:10.489Z,7.20
2023-04-08T00:51:39.495Z,7.19
2023-04-08T00:54:09.097Z,7.16
2023-04-08T00:56:38.801Z,7.16
2023-04-08T00:59:08.251Z,7.07
2023-04-08T01:01:45.676Z,7.05
2023-04-08T01:04:24.053Z,7.05
2023-04-08T01:07:00.814Z,7.05
2023-04-08T01:09:34.088Z,6.98
2023-04-08T01:12:07.895Z,6.93
2023-04-08T01:14:42.184Z,6.85
2023-04-08T01:17:13.209Z,6.67
2023-04-08T01:19:44.952Z,6.59
2023-04-08T01:22:24.392Z,6.64
2023-04-08T01:25:00.622Z,6.53
2023-04-08T01:27:34.030Z,6.66
2023-04-08T01:30:05.798Z,6.71
2023-04-08T01:32:36.580Z,6.71
2023-04-08T01:35:07.370Z,6.68
2023-04-08T01:37:37.024Z,6.69
2023-04-08T01:40:09.098Z,6.65
2023-04-08T01:42:41.794Z,6.68
2023-04-08T01:45:12.262Z,6.60
2023-04-08T01:47:42.349Z,6.63
2023-04-08T01:50:13.590Z,6.60
2023-04-08T01:52:44.811Z,6.66
2023-04-08T01:55:15.650Z,6.67
2023-04-08T01:57:49.376Z,6.67
2023-04-08T02:00:28.224Z,6.68
2023-04-08T02:02:58.557Z,6.66
2023-04-08T02:05:28.189Z,6.45
2023-04-08T02:07:57.158Z,6.38
2023-04-08T02:10:26.573Z,6.41
2023-04-08T02:12:58.052Z,6.48
2023-04-08T02:15:30.767Z,6.60
2023-04-08T02:18:08.005Z,6.63
2023-04-08T02:20:44.417Z,6.58
2023-04-08T02:23:18.650Z,6.56
2023-04-08T02:25:49.838Z,6.49
2023-04-08T02:28:22.335Z,6.46
2023-04-08T02:30:54.748Z,6.45
2023-04-08T02:33:25.428Z,6.53
2023-04-08T02:35:57.008Z,6.46
2023-04-08T02:38:29.943Z,6.51
2023-04-08T02:40:59.912Z,6.55
2023-04-08T02:43:32.815Z,6.57
2023-04-08T02:46:04.365Z,6.55
2023-04-08T02:48:33.729Z,6.56
2023-04-08T02:51:03.526Z,6.54
2023-04-08T02:53:32.626Z,6.57
2023-04-08T02:56:01.942Z,6.21
2023-04-08T02:58:32.532Z,6.44
2023-04-08T03:01:01.935Z,6.31
2023-04-08T03:03:31.492Z,6.47
2023-04-08T03:06:01.420Z,6.51
2023-04-08T03:08:30.548Z,6.54
2023-04-08T03:10:59.796Z,6.54
2023-04-08T03:13:29.835Z,6.54
2023-04-08T03:16:00.351Z,6.52
2023-04-08T03:18:29.460Z,6.51
2023-04-08T03:20:58.774Z,6.45
2023-04-08T03:23:27.909Z,6.17
2023-04-08T03:25:57.280Z,6.36
2023-04-08T03:28:26.220Z,6.46
2023-04-08T03:30:55.568Z,6.49
2023-04-08T03:33:26.031Z,6.49
2023-04-08T03:35:56.268Z,6.48
2023-04-08T03:38:25.442Z,6.50
2023-04-08T03:40:54.743Z,6.51
2023-04-08T03:43:25.584Z,6.49
2023-04-08T03:45:55.015Z,6.48
2023-04-08T03:48:25.496Z,6.49
2023-04-08T03:50:54.809Z,6.45
2023-04-08T03:53:23.775Z,6.40
2023-04-08T03:55:53.163Z,6.43
2023-04-08T03:58:22.243Z,6.32
2023-04-08T04:00:51.571Z,6.35
2023-04-08T04:03:20.897Z,6.32
2023-04-08T04:05:51.828Z,6.13
2023-04-08T04:08:21.002Z,6.22
2023-04-08T04:10:50.378Z,6.20
2023-04-08T04:13:19.646Z,6.11
2023-04-08T04:15:49.090Z,5.88
2023-04-08T04:18:18.241Z,5.95
2023-04-08T04:20:47.530Z,5.98
2023-04-08T04:23:17.989Z,5.96
2023-04-08T04:25:47.363Z,5.89
2023-04-08T04:28:16.384Z,5.94
2023-04-08T04:30:45.868Z,5.89
2023-04-08T04:33:14.892Z,5.87
2023-04-08T04:35:44.311Z,5.74
2023-04-08T04:38:13.559Z,5.74
2023-04-08T04:40:44.356Z,5.59
2023-04-08T04:43:13.440Z,5.34
2023-04-08T04:45:42.733Z,5.28
2023-04-08T04:48:11.741Z,5.39
2023-04-08T04:50:41.309Z,5.38
2023-04-08T04:53:10.424Z,5.46
2023-04-08T04:55:39.709Z,5.50
2023-04-08T04:58:10.123Z,5.75
2023-04-08T05:00:39.881Z,5.84
2023-04-08T05:03:09.016Z,5.91
2023-04-08T05:05:38.576Z,5.94
2023-04-08T05:08:08.352Z,5.95
2023-04-08T05:10:37.721Z,6.00
2023-04-08T05:13:06.764Z,6.01
2023-04-08T05:15:37.469Z,6.03
2023-04-08T05:18:06.636Z,5.97
2023-04-08T05:20:35.972Z,5.98
2023-04-08T05:23:05.024Z,6.02
2023-04-08T05:25:34.487Z,6.03
2023-04-08T05:28:03.594Z,5.88
2023-04-08T05:30:32.949Z,5.86
2023-04-08T05:33:03.568Z,6.03
2023-04-08T05:35:33.090Z,6.09
2023-04-08T05:38:02.142Z,6.09
2023-04-08T05:40:31.473Z,6.12
2023-04-08T05:43:00.683Z,6.11
2023-04-08T05:45:31.268Z,6.09
2023-04-08T05:48:00.204Z,6.15
2023-04-08T05:50:30.876Z,6.20
2023-04-08T05:52:59.972Z,6.08
2023-04-08T05:55:29.435Z,5.92
2023-04-08T05:57:58.468Z,5.98
2023-04-08T06:00:28.014Z,6.18
2023-04-08T06:02:57.407Z,6.26
2023-04-08T06:05:27.141Z,6.32
2023-04-08T06:07:57.583Z,6.22
2023-04-08T06:10:26.941Z,6.20
2023-04-08T06:12:55.952Z,6.22
2023-04-08T06:15:25.485Z,6.19
2023-04-08T06:17:54.577Z,6.25
2023-04-08T06:20:24.053Z,6.33
2023-04-08T06:22:53.110Z,6.28
2023-04-08T06:25:23.900Z,6.40
2023-04-08T06:27:53.071Z,6.35
2023-04-08T06:30:22.400Z,6.14
2023-04-08T06:32:51.432Z,6.30
2023-04-08T06:35:21.325Z,6.40
2023-04-08T06:37:50.451Z,6.37
2023-04-08T06:40:19.964Z,6.47
2023-04-08T06:42:50.801Z,6.49
2023-04-08T06:45:32.215Z,6.38
2023-04-08T06:48:01.431Z,6.43
2023-04-08T06:50:30.734Z,6.54
2023-04-08T06:53:00.464Z,6.54
2023-04-08T06:55:29.837Z,6.51
2023-04-08T06:58:02.106Z,6.59
2023-04-08T07:00:31.636Z,6.69
2023-04-08T07:03:00.711Z,6.74
2023-04-08T07:05:30.021Z,6.74
2023-04-08T07:07:59.127Z,6.78
2023-04-08T07:10:28.412Z,6.76
2023-04-08T07:12:58.284Z,6.79
2023-04-08T07:15:29.020Z,6.91
2023-04-08T07:17:58.848Z,6.97
2023-04-08T07:20:28.875Z,6.94
2023-04-08T07:22:58.608Z,6.93
2023-04-08T07:25:27.935Z,6.92
2023-04-08T07:27:57.389Z,6.93
2023-04-08T07:30:28.152Z,6.72
2023-04-08T07:33:00.009Z,6.79
2023-04-08T07:35:32.333Z,7.05
2023-04-08T07:38:01.504Z,7.20
2023-04-08T07:40:31.128Z,7.09
2023-04-08T07:43:00.220Z,7.12
2023-04-08T07:45:31.044Z,7.14
2023-04-08T07:48:00.261Z,6.97
2023-04-08T07:50:29.710Z,7.23
2023-04-08T07:52:58.734Z,7.32
2023-04-08T07:55:28.339Z,7.37
2023-04-08T07:57:57.471Z,7.46
2023-04-08T08:00:26.995Z,7.48
2023-04-08T08:02:57.574Z,7.56
2023-04-08T08:05:26.984Z,7.62
2023-04-08T08:07:55.956Z,7.67
2023-04-08T08:10:25.361Z,7.56
2023-04-08T08:12:54.365Z,7.53
2023-04-08T08:15:23.762Z,7.64
2023-04-08T08:17:52.819Z,7.65
2023-04-08T08:20:23.627Z,7.62
2023-04-08T08:22:57.247Z,7.73
2023-04-08T08:25:27.130Z,7.91
2023-04-08T08:27:56.127Z,8.02
2023-04-08T08:30:26.576Z,8.08
2023-04-08T08:32:56.628Z,8.08
2023-04-08T08:35:27.153Z,8.18
2023-04-08T08:37:56.377Z,8.29
2023-04-08T08:40:25.831Z,8.23
2023-04-08T08:42:55.237Z,8.35
2023-04-08T08:45:24.572Z,8.45
2023-04-08T08:47:53.832Z,8.54
2023-04-08T08:50:23.187Z,8.57
2023-04-08T08:52:54.046Z,8.67
2023-04-08T08:57:55.561Z,8.88
2023-04-08T09:00:34.777Z,8.98
2023-04-08T09:03:18.571Z,9.06
2023-04-08T09:05:52.758Z,9.26
2023-04-08T09:08:31.344Z,9.39
2023-04-08T09:11:14.492Z,9.51
2023-04-08T09:13:43.847Z,9.68
2023-04-08T09:16:15.108Z,9.78
2023-04-08T09:18:45.080Z,9.90
2023-04-08T09:21:15.102Z,10.09
2023-04-08T09:23:48.035Z,10.17
2023-04-08T09:26:19.575Z,10.23
2023-04-08T09:29:04.071Z,10.28
2023-04-08T09:31:42.445Z,10.31
2023-04-08T09:34:13.913Z,10.34
2023-04-08T09:36:44.634Z,10.49
2023-04-08T09:39:15.186Z,10.56
2023-04-08T09:41:45.361Z,10.63
2023-04-08T09:44:16.720Z,10.74
2023-04-08T09:46:58.190Z,10.95
2023-04-08T09:49:30.208Z,10.96
2023-04-08T09:52:08.078Z,11.05
2023-04-08T09:54:44.936Z,11.20
2023-04-08T09:57:18.927Z,11.44
2023-04-08T09:59:53.982Z,11.61
2023-04-08T10:02:31.238Z,11.75
2023-04-08T10:05:04.568Z,11.83
2023-04-08T10:07:37.007Z,11.92
2023-04-08T10:10:11.091Z,11.98
2023-04-08T10:12:41.211Z,12.07
2023-04-08T10:15:27.775Z,12.37
2023-04-08T10:18:19.364Z,12.58
2023-04-08T10:20:50.581Z,12.67
2023-04-08T10:23:41.157Z,13.03
2023-04-08T10:26:30.997Z,13.26
2023-04-08T10:29:33.156Z,13.11
2023-04-08T10:32:03.025Z,13.16
2023-04-08T10:34:32.498Z,13.48
2023-04-08T10:37:06.591Z,13.54
2023-04-08T10:39:38.649Z,13.54
2023-04-08T10:42:10.768Z,13.81
2023-04-08T10:44:46.123Z,13.93
2023-04-08T10:47:15.313Z,14.00
2023-04-08T10:49:44.567Z,14.00
2023-04-08T10:52:15.842Z,14.24
2023-04-08T10:54:49.775Z,14.26
2023-04-08T10:57:25.909Z,14.37
2023-04-08T10:59:55.184Z,14.41
2023-04-08T11:02:24.240Z,14.45
2023-04-08T11:04:56.356Z,14.37
2023-04-08T11:07:28.276Z,14.37
2023-04-08T11:09:57.706Z,14.42
2023-04-08T11:12:27.981Z,14.50
2023-04-08T11:14:57.350Z,14.61
2023-04-08T11:17:26.432Z,14.71
2023-04-08T11:19:58.007Z,14.72
2023-04-08T11:22:31.034Z,14.74
2023-04-08T11:25:00.782Z,14.81
2023-04-08T11:27:30.774Z,14.97
2023-04-08T11:30:01.561Z,15.05
2023-04-08T11:32:33.290Z,15.09
2023-04-08T11:35:03.547Z,15.22
2023-04-08T11:37:40.993Z,15.27
2023-04-08T11:40:11.747Z,15.30
2023-04-08T11:42:41.789Z,15.38
2023-04-08T11:45:16.449Z,15.36
2023-04-08T11:47:46.838Z,15.51
2023-04-08T11:50:24.832Z,15.31
2023-04-08T11:52:55.617Z,15.55
2023-04-08T11:55:27.071Z,15.68
2023-04-08T11:57:57.393Z,15.90
2023-04-08T12:00:28.115Z,16.01
2023-04-08T12:02:57.444Z,15.97
2023-04-08T12:05:26.853Z,16.04
2023-04-08T12:07:57.750Z,15.92
2023-04-08T12:10:27.520Z,16.07
2023-04-08T12:12:56.847Z,16.06
2023-04-08T12:15:26.218Z,15.49
2023-04-08T12:17:55.942Z,16.01
2023-04-08T12:20:25.435Z,16.09
2023-04-08T12:22:54.419Z,16.23
2023-04-08T12:25:25.189Z,15.67
2023-04-08T12:27:54.237Z,15.94
2023-04-08T12:30:23.572Z,16.16
2023-04-08T12:32:54.320Z,16.21
2023-04-08T12:35:23.879Z,16.41
2023-04-08T12:37:52.883Z,16.28
2023-04-08T12:40:22.205Z,16.33
2023-04-08T12:42:53.129Z,16.35
2023-04-08T12:45:22.622Z,16.44
2023-04-08T12:47:51.678Z,16.44
2023-04-08T12:50:21.004Z,16.34
2023-04-08T12:52:50.123Z,16.39
2023-04-08T12:55:19.403Z,16.41
2023-04-08T12:57:49.567Z,16.23
2023-04-08T13:00:21.406Z,16.18
2023-04-08T13:02:51.048Z,16.04
2023-04-08T13:05:29.488Z,16.19
2023-04-08T13:08:09.178Z,16.15
2023-04-08T13:10:38.519Z,16.28
2023-04-08T13:13:07.632Z,16.20
2023-04-08T13:15:38.341Z,16.24
2023-04-08T13:18:07.955Z,16.38
2023-04-08T13:20:37.410Z,16.38
2023-04-08T13:23:06.678Z,16.40
2023-04-08T13:25:35.987Z,16.37
2023-04-08T13:28:05.320Z,16.39
2023-04-08T13:30:34.746Z,16.27
2023-04-08T13:33:05.309Z,16.21
2023-04-08T13:35:34.782Z,16.42
2023-04-08T13:38:03.756Z,16.27
2023-04-08T13:40:33.344Z,16.19
2023-04-08T13:43:02.476Z,16.21
2023-04-08T13:45:31.850Z,16.24
2023-04-08T13:48:01.071Z,16.06
2023-04-08T13:50:32.009Z,16.22
2023-04-08T13:53:01.286Z,16.27
2023-04-08T13:55:30.586Z,16.12
2023-04-08T13:57:59.690Z,16.14
2023-04-08T14:00:29.078Z,16.03
2023-04-08T14:02:58.119Z,16.08
2023-04-08T14:05:27.517Z,15.92
2023-04-08T14:07:57.913Z,15.82
2023-04-08T14:10:27.222Z,15.67
2023-04-08T14:12:56.272Z,15.60
2023-04-08T14:15:25.596Z,15.53
2023-04-08T14:17:54.653Z,15.27
2023-04-08T14:20:24.040Z,15.20
2023-04-08T14:22:53.061Z,15.24
2023-04-08T14:25:23.788Z,15.24
2023-04-08T14:27:58.451Z,15.21
2023-04-08T14:30:28.902Z,15.14
2023-04-08T14:32:59.299Z,14.87
2023-04-08T14:35:28.716Z,14.87
2023-04-08T14:37:57.783Z,14.78
2023-04-08T14:40:28.576Z,14.41
2023-04-08T14:42:57.593Z,14.44
2023-04-08T14:45:27.118Z,14.43
2023-04-08T14:47:56.292Z,14.52
2023-04-08T14:50:25.771Z,14.64
2023-04-08T14:52:54.769Z,14.72
2023-04-08T14:55:24.128Z,14.51
2023-04-08T14:57:54.537Z,14.58
2023-04-08T15:00:24.011Z,14.63
2023-04-08T15:02:53.124Z,14.47
2023-04-08T15:05:22.561Z,14.72
2023-04-08T15:07:51.782Z,14.42
2023-04-08T15:10:21.183Z,13.93
2023-04-08T15:12:50.259Z,14.09
2023-04-08T15:15:20.957Z,14.01
2023-04-08T15:17:52.033Z,14.07
2023-04-08T15:20:21.598Z,13.83
2023-04-08T15:22:50.594Z,13.87
2023-04-08T15:25:20.049Z,14.09
2023-04-08T15:27:49.195Z,13.95
2023-04-08T15:30:24.444Z,13.91
2023-04-08T15:32:55.020Z,13.79
2023-04-08T15:35:25.632Z,13.73
2023-04-08T15:37:54.640Z,13.60
2023-04-08T15:40:23.957Z,13.48
2023-04-08T15:42:52.982Z,13.47
2023-04-08T15:45:23.805Z,13.26
2023-04-08T15:47:52.979Z,13.20
2023-04-08T15:50:22.554Z,13.04
2023-04-08T15:52:51.646Z,12.81
2023-04-08T15:55:21.112Z,12.82
2023-04-08T15:57:50.104Z,12.81
2023-04-08T16:00:19.616Z,12.87
2023-04-08T16:02:50.195Z,12.78
2023-04-08T16:05:19.865Z,12.69
2023-04-08T16:07:48.989Z,12.62
2023-04-08T16:10:18.549Z,12.55
2023-04-08T16:12:47.554Z,12.48
2023-04-08T16:15:17.658Z,12.43
2023-04-08T16:17:53.670Z,12.13
2023-04-08T16:20:23.160Z,12.16
2023-04-08T16:22:52.184Z,12.05
2023-04-08T16:25:21.782Z,11.88
2023-04-08T16:27:50.782Z,11.95
2023-04-08T16:30:20.189Z,11.90
2023-04-08T16:32:49.726Z,11.80
2023-04-08T16:35:22.412Z,11.81
2023-04-08T16:37:51.550Z,11.85
2023-04-08T16:40:20.808Z,11.75
2023-04-08T16:42:49.869Z,11.48
2023-04-08T16:45:19.422Z,11.25
2023-04-08T16:47:48.525Z,11.06
2023-04-08T16:50:19.259Z,11.26
2023-04-08T16:52:49.825Z,11.20
2023-04-08T16:55:19.624Z,11.24
2023-04-08T16:57:48.801Z,11.23
2023-04-08T17:00:20.980Z,11.17
2023-04-08T17:02:50.737Z,10.95
2023-04-08T17:05:22.512Z,10.89
2023-04-08T17:07:51.686Z,10.87
2023-04-08T17:10:23.385Z,10.93
2023-04-08T17:12:52.428Z,10.78
2023-04-08T17:15:21.669Z,10.63
2023-04-08T17:17:50.708Z,10.72
2023-04-08T17:20:22.134Z,10.63
2023-04-08T17:22:51.504Z,10.60
2023-04-08T17:25:20.937Z,10.60
2023-04-08T17:27:49.901Z,10.43
2023-04-08T17:30:20.449Z,10.53
2023-04-08T17:32:49.488Z,10.44
2023-04-08T17:35:20.291Z,10.34
2023-04-08T17:37:50.315Z,10.30
2023-04-08T17:40:19.573Z,10.19
2023-04-08T17:42:48.634Z,10.10
2023-04-08T17:45:18.189Z,10.04
2023-04-08T17:47:47.198Z,9.83
2023-04-08T17:50:16.854Z,9.75
2023-04-08T17:52:47.875Z,9.74
2023-04-08T17:55:17.423Z,9.62
2023-04-08T17:57:47.126Z,9.69
2023-04-08T18:00:17.492Z,9.61
2023-04-08T18:02:48.917Z,9.46
2023-04-08T18:05:19.555Z,9.15
2023-04-08T18:07:50.408Z,9.16
2023-04-08T18:10:19.922Z,9.29
2023-04-08T18:12:50.694Z,9.12
2023-04-08T18:15:24.101Z,9.23
2023-04-08T18:17:53.411Z,8.54
2023-04-08T18:20:22.917Z,8.30
2023-04-08T18:22:53.288Z,8.79
2023-04-08T18:25:23.375Z,8.90
2023-04-08T18:27:52.769Z,8.73
2023-04-08T18:30:22.114Z,8.39
2023-04-08T18:32:51.185Z,7.64
2023-04-08T18:35:21.088Z,7.76
2023-04-08T18:37:50.157Z,7.50
2023-04-08T18:40:20.893Z,7.38
2023-04-08T18:42:49.916Z,7.57
2023-04-08T18:45:19.334Z,7.17
2023-04-08T18:47:48.389Z,6.74
2023-04-08T18:50:17.837Z,6.67
2023-04-08T18:52:47.643Z,6.64
2023-04-08T18:55:17.291Z,6.72
2023-04-08T18:57:47.671Z,6.73
2023-04-08T19:00:17.274Z,6.66
2023-04-08T19:02:46.455Z,6.91
2023-04-08T19:05:15.951Z,7.32
2023-04-08T19:07:44.913Z,7.36
2023-04-08T19:10:14.209Z,7.58
2023-04-08T19:12:43.251Z,7.46
2023-04-08T19:15:15.812Z,7.47
2023-04-08T19:17:44.883Z,7.61
2023-04-08T19:20:14.395Z,7.66
2023-04-08T19:22:43.406Z,7.56
2023-04-08T19:25:12.702Z,7.62
2023-04-08T19:27:41.697Z,7.64
2023-04-08T19:30:12.177Z,7.53
2023-04-08T19:32:43.722Z,7.51
2023-04-08T19:35:15.225Z,7.56
2023-04-08T19:37:44.384Z,7.52
2023-04-08T19:40:13.852Z,7.51
2023-04-08T19:42:42.901Z,7.44
2023-04-08T19:45:12.813Z,7.43
2023-04-08T19:47:45.594Z,7.53
2023-04-08T19:50:15.590Z,7.58
2023-04-08T19:52:44.568Z,7.58
2023-04-08T19:55:15.024Z,7.58
2023-04-08T19:57:44.128Z,7.54
2023-04-08T20:00:14.434Z,7.51
2023-04-08T20:02:45.099Z,7.60
2023-04-08T20:05:16.358Z,7.61
2023-04-08T20:07:45.820Z,7.54
2023-04-08T20:10:15.638Z,7.60
2023-04-08T20:12:44.682Z,7.63
2023-04-08T20:15:24.155Z,7.64
2023-04-08T20:17:55.085Z,7.65
2023-04-08T20:20:26.697Z,7.67
2023-04-08T20:22:56.649Z,7.55
2023-04-08T20:25:26.010Z,7.60
2023-04-08T20:27:55.070Z,7.65
2023-04-08T20:30:24.351Z,7.67
2023-04-08T20:32:54.829Z,7.68
2023-04-08T20:35:24.264Z,7.67
2023-04-08T20:37:53.281Z,7.60
2023-04-08T20:40:22.746Z,7.53
2023-04-08T20:42:51.701Z,7.44
2023-04-08T20:45:21.544Z,7.48
2023-04-08T20:47:50.884Z,7.56
2023-04-08T20:50:21.653Z,7.58
2023-04-08T20:52:51.761Z,7.65
2023-04-08T20:55:21.352Z,7.71
2023-04-08T20:57:50.311Z,7.72
2023-04-08T21:00:20.136Z,7.72
2023-04-08T21:02:50.417Z,7.71
2023-04-08T21:05:22.072Z,7.72
2023-04-08T21:07:52.502Z,7.73
2023-04-08T21:10:23.491Z,7.68
2023-04-08T21:12:52.584Z,7.60
2023-04-08T21:15:21.943Z,7.65
2023-04-08T21:17:51.132Z,7.68
2023-04-08T21:20:21.839Z,7.69
2023-04-08T21:22:51.070Z,7.63
2023-04-08T21:25:20.486Z,7.70
2023-04-08T21:27:49.494Z,7.69
2023-04-08T21:30:19.239Z,7.64
2023-04-08T21:32:48.382Z,7.66
2023-04-08T21:35:17.737Z,7.73
2023-04-08T21:37:48.156Z,7.71
2023-04-08T21:40:17.668Z,7.70
2023-04-08T21:42:46.718Z,7.66
2023-04-08T21:45:17.050Z,7.69
2023-04-08T21:47:46.516Z,7.72
2023-04-08T21:50:15.795Z,7.70
2023-04-08T21:52:45.013Z,7.71
2023-04-08T21:55:15.857Z,7.67
2023-04-08T21:57:44.938Z,7.40
2023-04-08T22:00:15.210Z,7.33
2023-04-08T22:02:47.850Z,7.41
2023-04-08T22:05:17.348Z,7.54
2023-04-08T22:07:46.332Z,7.61
2023-04-08T22:10:17.166Z,7.54
2023-04-08T22:12:46.381Z,7.59
2023-04-08T22:15:15.828Z,7.56
2023-04-08T22:17:44.962Z,7.25
2023-04-08T22:20:14.388Z,7.25
2023-04-08T22:22:43.379Z,6.68
2023-04-08T22:28:07.667Z,6.43
2023-04-08T22:30:37.106Z,6.51
2023-04-08T22:33:06.208Z,6.81
2023-04-08T22:35:36.148Z,7.10
2023-04-08T22:38:05.233Z,6.97
2023-04-08T22:40:37.722Z,6.97
2023-04-08T22:43:08.146Z,7.24
2023-04-08T22:45:38.601Z,7.38
2023-04-08T22:48:07.656Z,7.28
2023-04-08T22:50:37.110Z,7.28
2023-04-08T22:53:06.205Z,7.39
2023-04-08T22:55:35.509Z,7.49
2023-04-08T22:58:04.568Z,7.51
2023-04-08T23:00:35.272Z,7.46
2023-04-08T23:03:04.958Z,7.60
2023-04-08T23:05:34.531Z,7.68
2023-04-08T23:08:03.509Z,7.72
2023-04-08T23:10:32.836Z,7.74
2023-04-08T23:13:01.790Z,7.76
2023-04-08T23:15:31.182Z,7.74
2023-04-08T23:18:01.550Z,7.71
2023-04-08T23:20:30.889Z,7.62
2023-04-08T23:22:59.875Z,7.71
2023-04-08T23:25:29.253Z,7.72
2023-04-08T23:27:58.346Z,7.62
2023-04-08T23:30:27.637Z,7.56
2023-04-08T23:32:56.617Z,7.71
2023-04-08T23:35:27.335Z,7.76
2023-04-08T23:37:56.389Z,7.69
2023-04-08T23:40:25.772Z,7.39
2023-04-08T23:42:54.862Z,7.51
2023-04-08T23:45:24.134Z,7.54
2023-04-08T23:47:53.220Z,7.30
2023-04-08T23:50:23.198Z,7.53
2023-04-08T23:52:53.621Z,7.58
2023-04-08T23:55:23.034Z,7.57
2023-04-08T23:57:53.813Z,7.62
